Geneva, Iowa
Current Conditions -  °F | °C
As of 3:55 PM on Thursday 27 Nov 2014 (Local Time) from KIFA Reporting Station
Clear Clear  
Wind Chill:   Ceiling: Unl
Heat Index:   Visibility: 7mi
Dew Point: -2°   Wind: 3mph
Humidity: 75%   Direction: 270°W
Pressure: 30.44"   Gusts: NA
Location:  42.68°N, 93.13°W
Report Text: KIFA 272155Z AUTO 27003KT 7SM CLR M15/M19 A3044 RMK AO2 T11511187
Loading
Personal Weather Stations






























Interactive Weather Map New forecast layout! Learn more

10-Day Weather Forecast

Advertisements
Track Severe Weather on mobile